createdAt,value
2023-04-02T00:02:21.759Z,99.90
2023-04-02T00:05:16.479Z,99.90
2023-04-02T00:07:48.761Z,99.90
2023-04-02T00:10:30.934Z,99.90
2023-04-02T00:13:11.337Z,99.90
2023-04-02T00:15:43.953Z,99.90
2023-04-02T00:18:16.884Z,99.90
2023-04-02T00:20:48.716Z,99.90
2023-04-02T00:23:16.302Z,99.90
2023-04-02T00:25:45.616Z,99.90
2023-04-02T00:28:15.561Z,99.90
2023-04-02T00:30:54.207Z,99.90
2023-04-02T00:33:24.027Z,99.90
2023-04-02T00:35:53.410Z,99.90
2023-04-02T00:38:27.194Z,99.90
2023-04-02T00:40:57.167Z,99.90
2023-04-02T00:43:26.162Z,99.90
2023-04-02T00:45:56.873Z,99.90
2023-04-02T00:48:32.595Z,99.90
2023-04-02T00:51:11.614Z,99.90
2023-04-02T00:53:40.582Z,99.90
2023-04-02T00:56:33.365Z,99.90
2023-04-02T00:59:00.442Z,99.90
2023-04-02T01:01:35.730Z,99.90
2023-04-02T01:04:05.596Z,99.90
2023-04-02T01:06:37.090Z,99.90
2023-04-02T01:09:09.210Z,99.90
2023-04-02T01:11:41.956Z,99.90
2023-04-02T01:14:29.576Z,99.90
2023-04-02T01:17:30.515Z,99.90
2023-04-02T01:20:41.650Z,99.90
2023-04-02T01:23:14.155Z,99.90
2023-04-02T01:25:47.358Z,99.90
2023-04-02T01:28:27.219Z,99.90
2023-04-02T01:30:56.660Z,99.90
2023-04-02T01:33:29.600Z,99.90
2023-04-02T01:36:26.188Z,99.90
2023-04-02T01:39:19.566Z,99.90
2023-04-02T01:42:07.928Z,99.90
2023-04-02T01:44:46.552Z,99.90
2023-04-02T01:47:17.295Z,99.90
2023-04-02T01:49:44.870Z,99.90
2023-04-02T01:52:36.831Z,99.90
2023-04-02T01:55:04.552Z,99.90
2023-04-02T01:57:31.470Z,99.90
2023-04-02T02:00:01.712Z,99.90
2023-04-02T02:02:28.600Z,99.90
2023-04-02T02:04:55.717Z,99.90
2023-04-02T02:07:23.435Z,99.90
2023-04-02T02:09:51.060Z,99.90
2023-04-02T02:12:17.783Z,99.90
2023-04-02T02:14:52.193Z,99.90
2023-04-02T02:17:26.455Z,99.90
2023-04-02T02:19:57.041Z,99.90
2023-04-02T02:22:30.766Z,99.90
2023-04-02T02:25:05.259Z,99.90
2023-04-02T02:27:44.494Z,99.90
2023-04-02T02:30:16.977Z,99.90
2023-04-02T02:33:14.191Z,99.90
2023-04-02T02:36:02.042Z,99.90
2023-04-02T02:38:34.689Z,99.90
2023-04-02T02:41:24.577Z,99.90
2023-04-02T02:44:16.033Z,99.90
2023-04-02T02:47:02.892Z,99.90
2023-04-02T02:49:33.586Z,99.90
2023-04-02T02:52:09.022Z,99.90
2023-04-02T02:54:38.627Z,99.90
2023-04-02T02:57:09.678Z,99.90
2023-04-02T02:59:37.727Z,99.90
2023-04-02T03:02:06.870Z,99.90
2023-04-02T03:04:37.150Z,99.90
2023-04-02T03:07:08.900Z,99.90
2023-04-02T03:10:13.236Z,99.90
2023-04-02T03:12:51.267Z,99.90
2023-04-02T03:15:36.292Z,99.90
2023-04-02T03:18:13.955Z,99.90
2023-04-02T03:20:51.391Z,99.90
2023-04-02T03:23:24.203Z,99.90
2023-04-02T03:26:24.578Z,99.90
2023-04-02T03:28:59.402Z,99.90
2023-04-02T03:31:39.894Z,99.90
2023-04-02T03:34:19.884Z,99.90
2023-04-02T03:37:15.997Z,99.90
2023-04-02T03:39:53.188Z,99.90
2023-04-02T03:42:27.889Z,99.90
2023-04-02T03:45:09.991Z,99.90
2023-04-02T03:47:54.629Z,99.90
2023-04-02T03:50:58.959Z,99.90
2023-04-02T03:53:27.502Z,99.90
2023-04-02T03:55:55.802Z,99.90
2023-04-02T03:58:42.938Z,99.90
2023-04-02T04:01:34.421Z,99.90
2023-04-02T04:04:21.568Z,99.90
2023-04-02T04:06:52.425Z,99.90
2023-04-02T04:09:35.421Z,99.90
2023-04-02T04:12:25.622Z,99.90
2023-04-02T04:15:02.058Z,99.90
2023-04-02T04:18:02.448Z,99.90
2023-04-02T04:20:37.048Z,99.90
2023-04-02T04:23:35.894Z,99.90
2023-04-02T04:26:19.557Z,99.90
2023-04-02T04:29:25.679Z,99.90
2023-04-02T04:31:55.707Z,99.90
2023-04-02T04:34:51.395Z,99.90
2023-04-02T04:37:25.189Z,99.90
2023-04-02T04:40:04.209Z,99.90
2023-04-02T04:42:35.809Z,99.90
2023-04-02T04:45:24.179Z,99.90
2023-04-02T04:48:04.553Z,99.90
2023-04-02T04:50:59.252Z,99.90
2023-04-02T04:53:28.373Z,99.90
2023-04-02T04:56:16.472Z,99.90
2023-04-02T04:59:00.326Z,99.90
2023-04-02T05:01:50.568Z,99.90
2023-04-02T05:04:41.343Z,99.90
2023-04-02T05:07:14.054Z,99.90
2023-04-02T05:10:01.625Z,99.90
2023-04-02T05:12:37.595Z,99.90
2023-04-02T05:15:34.996Z,99.90
2023-04-02T05:18:28.024Z,99.90
2023-04-02T05:21:06.927Z,99.90
2023-04-02T05:23:51.561Z,99.90
2023-04-02T05:26:32.535Z,99.90
2023-04-02T05:29:17.672Z,99.90
2023-04-02T05:31:48.913Z,99.90
2023-04-02T05:34:25.851Z,99.90
2023-04-02T05:36:53.662Z,99.90
2023-04-02T05:39:23.446Z,99.90
2023-04-02T05:42:04.893Z,99.90
2023-04-02T05:44:36.791Z,99.90
2023-04-02T05:47:12.235Z,99.90
2023-04-02T05:49:48.201Z,99.90
2023-04-02T05:52:21.368Z,99.90
2023-04-02T05:54:56.243Z,99.90
2023-04-02T05:57:42.804Z,99.90
2023-04-02T06:00:21.697Z,99.90
2023-04-02T06:03:00.002Z,99.90
2023-04-02T06:05:34.158Z,99.90
2023-04-02T06:08:21.109Z,99.90
2023-04-02T06:11:16.451Z,99.90
2023-04-02T06:13:43.131Z,99.90
2023-04-02T06:16:15.551Z,99.90
2023-04-02T06:18:43.326Z,99.90
2023-04-02T06:21:14.729Z,99.90
2023-04-02T06:24:04.299Z,99.90
2023-04-02T06:26:37.965Z,99.90
2023-04-02T06:29:16.848Z,99.90
2023-04-02T06:31:49.561Z,99.90
2023-04-02T06:34:21.852Z,99.90
2023-04-02T06:36:50.710Z,99.90
2023-04-02T06:39:23.986Z,99.90
2023-04-02T06:42:20.541Z,99.90
2023-04-02T06:44:47.412Z,99.90
2023-04-02T06:47:28.822Z,99.90
2023-04-02T06:50:15.410Z,99.90
2023-04-02T06:52:52.412Z,99.90
2023-04-02T06:55:43.076Z,99.90
2023-04-02T06:58:10.049Z,99.90
2023-04-02T07:00:40.901Z,99.90
2023-04-02T07:03:14.643Z,99.90
2023-04-02T07:05:42.957Z,99.90
2023-04-02T07:08:09.811Z,99.90
2023-04-02T07:10:37.017Z,99.90
2023-04-02T07:13:05.836Z,99.90
2023-04-02T07:15:32.801Z,99.90
2023-04-02T07:18:00.223Z,99.90
2023-04-02T07:20:31.838Z,99.90
2023-04-02T07:22:58.596Z,99.90
2023-04-02T07:25:27.261Z,99.90
2023-04-02T07:27:53.970Z,99.90
2023-04-02T07:30:20.837Z,99.90
2023-04-02T07:32:47.855Z,99.90
2023-04-02T07:35:14.628Z,99.90
2023-04-02T07:37:41.237Z,99.90
2023-04-02T07:40:17.781Z,99.90
2023-04-02T07:42:45.426Z,99.90
2023-04-02T07:45:13.029Z,99.90
2023-04-02T07:47:40.343Z,99.90
2023-04-02T07:50:08.194Z,99.90
2023-04-02T07:52:45.329Z,99.90
2023-04-02T07:55:14.427Z,99.90
2023-04-02T07:57:51.599Z,99.90
2023-04-02T08:00:19.094Z,99.90
2023-04-02T08:02:45.891Z,99.90
2023-04-02T08:05:12.799Z,99.90
2023-04-02T08:07:39.641Z,99.90
2023-04-02T08:10:08.630Z,99.90
2023-04-02T08:12:36.060Z,99.90
2023-04-02T08:15:03.706Z,99.90
2023-04-02T08:17:31.399Z,99.90
2023-04-02T08:20:02.060Z,99.90
2023-04-02T08:22:29.406Z,99.90
2023-04-02T08:24:56.690Z,99.90
2023-04-02T08:27:24.568Z,99.90
2023-04-02T08:29:51.406Z,98.40
2023-04-02T08:32:18.489Z,97.80
2023-04-02T08:34:45.929Z,97.40
2023-04-02T08:37:13.510Z,97.00
2023-04-02T08:39:40.570Z,95.10
2023-04-02T08:42:19.306Z,94.90
2023-04-02T08:45:10.870Z,93.10
2023-04-02T08:47:44.244Z,94.70
2023-04-02T08:50:29.270Z,95.60
2023-04-02T08:52:56.994Z,95.90
2023-04-02T08:55:47.745Z,93.60
2023-04-02T08:58:37.598Z,93.30
2023-04-02T09:01:07.239Z,93.80
2023-04-02T09:03:41.500Z,92.90
2023-04-02T09:06:13.417Z,91.00
2023-04-02T09:08:43.961Z,91.80
2023-04-02T09:11:23.923Z,92.40
2023-04-02T09:14:00.288Z,91.60
2023-04-02T09:16:51.249Z,91.40
2023-04-02T09:19:26.319Z,89.80
2023-04-02T09:22:20.941Z,90.60
2023-04-02T09:24:55.514Z,89.60
2023-04-02T09:27:25.722Z,88.50
2023-04-02T09:30:22.816Z,88.50
2023-04-02T09:32:52.402Z,89.20
2023-04-02T09:35:31.036Z,85.50
2023-04-02T09:38:23.522Z,86.90
2023-04-02T09:40:56.864Z,87.40
2023-04-02T09:43:28.183Z,86.20
2023-04-02T09:46:04.871Z,85.80
2023-04-02T09:48:40.752Z,85.90
2023-04-02T09:51:11.456Z,85.80
2023-04-02T09:53:47.791Z,87.00
2023-04-02T09:56:21.716Z,86.70
2023-04-02T09:59:02.946Z,86.80
2023-04-02T10:01:34.836Z,84.70
2023-04-02T10:04:03.615Z,84.80
2023-04-02T10:06:32.586Z,85.90
2023-04-02T10:09:18.456Z,86.80
2023-04-02T10:11:46.972Z,83.90
2023-04-02T10:14:22.906Z,86.60
2023-04-02T10:16:57.759Z,86.10
2023-04-02T10:19:51.776Z,81.60
2023-04-02T10:22:20.393Z,85.20
2023-04-02T10:24:47.500Z,86.50
2023-04-02T10:27:46.471Z,82.30
2023-04-02T10:30:30.509Z,81.30
2023-04-02T10:33:14.214Z,84.40
2023-04-02T10:35:45.151Z,85.00
2023-04-02T10:38:53.913Z,85.50
2023-04-02T10:41:42.843Z,84.10
2023-04-02T10:44:20.001Z,82.20
2023-04-02T10:47:27.771Z,82.90
2023-04-02T10:50:19.956Z,80.60
2023-04-02T10:53:26.076Z,83.30
2023-04-02T10:56:03.396Z,83.50
2023-04-02T10:58:34.517Z,85.90
2023-04-02T11:01:07.928Z,86.60
2023-04-02T11:03:43.302Z,86.20
2023-04-02T11:06:24.280Z,84.10
2023-04-02T11:08:55.401Z,83.80
2023-04-02T11:11:26.349Z,88.20
2023-04-02T11:14:05.529Z,86.00
2023-04-02T11:16:33.158Z,84.20
2023-04-02T11:19:15.341Z,85.50
2023-04-02T11:22:01.990Z,85.20
2023-04-02T11:24:36.892Z,85.80
2023-04-02T11:27:12.054Z,86.40
2023-04-02T11:29:46.163Z,86.30
2023-04-02T11:32:22.074Z,87.70
2023-04-02T11:34:56.431Z,85.10
2023-04-02T11:37:37.526Z,86.20
2023-04-02T11:40:16.426Z,87.90
2023-04-02T11:42:47.978Z,87.60
2023-04-02T11:45:23.362Z,90.30
2023-04-02T11:48:03.713Z,89.30
2023-04-02T11:50:43.731Z,89.00
2023-04-02T11:53:10.536Z,88.80
2023-04-02T11:55:39.627Z,89.30
2023-04-02T11:58:38.610Z,90.40
2023-04-02T12:01:20.202Z,88.00
2023-04-02T12:04:12.403Z,86.80
2023-04-02T12:06:55.001Z,87.60
2023-04-02T12:09:42.668Z,89.40
2023-04-02T12:12:26.141Z,87.10
2023-04-02T12:14:57.695Z,88.60
2023-04-02T12:17:38.808Z,89.70
2023-04-02T12:20:09.652Z,87.80
2023-04-02T12:22:40.292Z,89.40
2023-04-02T12:25:32.150Z,89.00
2023-04-02T12:28:18.568Z,89.90
2023-04-02T12:30:47.691Z,87.60
2023-04-02T12:33:20.133Z,89.00
2023-04-02T12:35:48.933Z,90.20
2023-04-02T12:38:30.042Z,90.00
2023-04-02T12:40:57.906Z,90.10
2023-04-02T12:43:32.744Z,90.20
2023-04-02T12:46:02.932Z,90.00
2023-04-02T12:48:31.087Z,89.50
2023-04-02T12:50:58.725Z,89.10
2023-04-02T12:53:32.931Z,89.30
2023-04-02T12:55:59.901Z,89.80
2023-04-02T12:58:31.938Z,90.30
2023-04-02T13:01:18.475Z,90.10
2023-04-02T13:04:00.989Z,89.90
2023-04-02T13:06:28.390Z,90.00
2023-04-02T13:08:55.536Z,88.70
2023-04-02T13:11:23.057Z,90.20
2023-04-02T13:13:50.815Z,90.70
2023-04-02T13:16:17.623Z,90.00
2023-04-02T13:18:47.570Z,90.00
2023-04-02T13:21:17.096Z,89.40
2023-04-02T13:23:44.713Z,89.60
2023-04-02T13:26:19.014Z,90.00
2023-04-02T13:29:16.525Z,88.80
2023-04-02T13:31:43.664Z,89.70
2023-04-02T13:34:10.501Z,90.30
2023-04-02T13:36:37.517Z,90.00
2023-04-02T13:39:05.082Z,90.00
2023-04-02T13:41:36.460Z,89.50
2023-04-02T13:44:03.979Z,89.40
2023-04-02T13:46:32.692Z,90.10
2023-04-02T13:48:59.833Z,90.20
2023-04-02T13:51:44.950Z,90.70
2023-04-02T13:54:17.194Z,89.20
2023-04-02T13:56:44.254Z,88.40
2023-04-02T13:59:11.089Z,89.00
2023-04-02T14:01:38.554Z,89.80
2023-04-02T14:04:06.336Z,89.50
2023-04-02T14:06:49.349Z,88.90
2023-04-02T14:09:52.981Z,89.00
2023-04-02T14:12:46.439Z,88.80
2023-04-02T14:15:16.235Z,89.80
2023-04-02T14:17:48.942Z,90.10
2023-04-02T14:20:24.233Z,88.50
2023-04-02T14:23:03.672Z,88.10
2023-04-02T14:25:36.587Z,89.20
2023-04-02T14:28:23.709Z,90.10
2023-04-02T14:31:06.939Z,90.00
2023-04-02T14:34:02.382Z,89.70
2023-04-02T14:37:05.078Z,89.50
2023-04-02T14:39:37.436Z,90.20
2023-04-02T14:42:04.037Z,90.50
2023-04-02T14:44:36.591Z,90.40
2023-04-02T14:47:20.319Z,90.50
2023-04-02T14:49:50.538Z,90.10
2023-04-02T14:52:22.627Z,90.70
2023-04-02T14:55:02.273Z,90.80
2023-04-02T14:57:41.914Z,90.50
2023-04-02T15:00:26.024Z,90.90
2023-04-02T15:03:04.934Z,90.70
2023-04-02T15:05:47.611Z,90.60
2023-04-02T15:08:26.439Z,90.60
2023-04-02T15:11:10.411Z,90.40
2023-04-02T15:13:41.740Z,91.00
2023-04-02T15:16:14.470Z,91.10
2023-04-02T15:18:41.204Z,90.20
2023-04-02T15:21:16.709Z,90.80
2023-04-02T15:23:58.286Z,90.60
2023-04-02T15:26:35.525Z,90.50
2023-04-02T15:29:29.645Z,90.90
2023-04-02T15:32:07.913Z,90.70
2023-04-02T15:34:43.135Z,90.90
2023-04-02T15:37:46.478Z,90.80
2023-04-02T15:40:44.404Z,90.50
2023-04-02T15:43:29.930Z,90.70
2023-04-02T15:46:11.735Z,90.10
2023-04-02T15:48:57.392Z,90.40
2023-04-02T15:51:30.059Z,90.60
2023-04-02T15:54:17.658Z,89.80
2023-04-02T15:57:02.713Z,90.70
2023-04-02T15:59:43.663Z,90.00
2023-04-02T16:02:32.081Z,90.20
2023-04-02T16:05:06.334Z,90.80
2023-04-02T16:08:00.467Z,90.70
2023-04-02T16:10:42.634Z,90.30
2023-04-02T16:13:37.157Z,89.70
2023-04-02T16:16:18.992Z,89.70
2023-04-02T16:18:54.892Z,90.40
2023-04-02T16:21:24.836Z,90.90
2023-04-02T16:23:51.702Z,90.90
2023-04-02T16:26:47.387Z,91.00
2023-04-02T16:29:51.046Z,90.80
2023-04-02T16:32:35.823Z,90.90
2023-04-02T16:35:43.467Z,91.50
2023-04-02T16:38:47.915Z,90.90
2023-04-02T16:41:39.133Z,90.20
2023-04-02T16:44:11.654Z,90.50
2023-04-02T16:47:27.175Z,90.90
2023-04-02T16:50:16.727Z,90.20
2023-04-02T16:52:47.453Z,90.40
2023-04-02T16:55:42.402Z,90.60
2023-04-02T16:58:11.815Z,90.10
2023-04-02T17:00:41.400Z,90.40
2023-04-02T17:03:28.838Z,90.50
2023-04-02T17:06:04.627Z,90.40
2023-04-02T17:08:42.906Z,91.00
2023-04-02T17:11:29.519Z,91.20
2023-04-02T17:14:21.803Z,90.90
2023-04-02T17:16:52.544Z,91.20
2023-04-02T17:19:21.403Z,91.40
2023-04-02T17:21:52.777Z,91.40
2023-04-02T17:24:27.095Z,91.60
2023-04-02T17:27:16.616Z,91.60
2023-04-02T17:29:47.313Z,91.90
2023-04-02T17:32:23.954Z,92.10
2023-04-02T17:34:50.747Z,92.40
2023-04-02T17:37:27.517Z,92.60
2023-04-02T17:40:08.416Z,92.50
2023-04-02T17:42:50.193Z,92.90
2023-04-02T17:45:50.048Z,93.30
2023-04-02T17:48:44.950Z,93.10
2023-04-02T17:51:31.695Z,93.40
2023-04-02T17:54:19.717Z,93.50
2023-04-02T17:57:02.458Z,93.50
2023-04-02T17:59:43.705Z,93.40
2023-04-02T18:02:22.431Z,93.90
2023-04-02T18:05:44.939Z,93.90
2023-04-02T18:08:14.517Z,93.70
2023-04-02T18:10:50.241Z,93.80
2023-04-02T18:13:37.000Z,94.10
2023-04-02T18:16:13.945Z,94.00
2023-04-02T18:19:12.193Z,94.20
2023-04-02T18:21:48.288Z,94.20
2023-04-02T18:24:51.033Z,94.20
2023-04-02T18:27:46.640Z,94.00
2023-04-02T18:30:38.994Z,94.30
2023-04-02T18:33:42.555Z,94.40
2023-04-02T18:36:19.751Z,94.40
2023-04-02T18:39:06.436Z,94.60
2023-04-02T18:41:45.796Z,94.70
2023-04-02T18:44:41.653Z,94.80
2023-04-02T18:47:23.530Z,95.00
2023-04-02T18:49:59.367Z,95.10
2023-04-02T18:52:26.409Z,95.00
2023-04-02T18:55:01.219Z,95.10
2023-04-02T18:57:33.957Z,95.30
2023-04-02T19:00:11.142Z,95.30
2023-04-02T19:03:11.769Z,95.30
2023-04-02T19:05:44.751Z,95.20
2023-04-02T19:08:24.206Z,95.50
2023-04-02T19:10:57.695Z,95.50
2023-04-02T19:13:24.391Z,95.70
2023-04-02T19:16:39.831Z,95.70
2023-04-02T19:19:25.004Z,95.90
2023-04-02T19:21:51.649Z,96.10
2023-04-02T19:24:21.298Z,96.20
2023-04-02T19:27:18.471Z,96.20
2023-04-02T19:30:04.815Z,96.30
2023-04-02T19:32:34.561Z,96.50
2023-04-02T19:35:27.048Z,96.50
2023-04-02T19:38:17.956Z,96.90
2023-04-02T19:41:03.901Z,97.00
2023-04-02T19:43:30.666Z,97.40
2023-04-02T19:45:57.741Z,97.40
2023-04-02T19:48:26.831Z,97.60
2023-04-02T19:50:53.705Z,98.00
2023-04-02T19:53:20.516Z,98.20
2023-04-02T19:55:47.270Z,98.80
2023-04-02T19:58:35.665Z,99.10
2023-04-02T20:01:02.883Z,99.50
2023-04-02T20:03:30.318Z,99.80
2023-04-02T20:05:59.448Z,99.90
2023-04-02T20:08:27.423Z,99.90
2023-04-02T20:10:54.290Z,99.90
2023-04-02T20:13:21.009Z,99.90
2023-04-02T20:15:47.735Z,99.90
2023-04-02T20:18:14.400Z,99.90
2023-04-02T20:20:41.024Z,99.90
2023-04-02T20:23:07.760Z,99.90
2023-04-02T20:25:34.475Z,99.90
2023-04-02T20:28:03.647Z,99.90
2023-04-02T20:30:32.336Z,99.90
2023-04-02T20:32:59.395Z,99.90
2023-04-02T20:35:26.522Z,99.90
2023-04-02T20:37:53.385Z,99.90
2023-04-02T20:40:20.148Z,99.90
2023-04-02T20:42:46.923Z,99.90
2023-04-02T20:45:13.866Z,99.90
2023-04-02T20:47:40.501Z,99.90
2023-04-02T20:50:07.695Z,99.90
2023-04-02T20:52:34.397Z,99.90
2023-04-02T20:55:01.766Z,99.90
2023-04-02T20:57:31.278Z,99.90
2023-04-02T20:59:58.894Z,99.90
2023-04-02T21:02:25.714Z,99.90
2023-04-02T21:04:52.454Z,99.90
2023-04-02T21:07:19.075Z,99.90
2023-04-02T21:09:45.798Z,99.90
2023-04-02T21:12:12.483Z,99.90
2023-04-02T21:14:40.136Z,99.90
2023-04-02T21:17:07.577Z,99.90
2023-04-02T21:19:34.984Z,99.90
2023-04-02T21:22:02.668Z,99.90
2023-04-02T21:24:29.521Z,99.90
2023-04-02T21:26:56.242Z,99.90
2023-04-02T21:29:22.878Z,99.90
2023-04-02T21:31:50.316Z,99.90
2023-04-02T21:34:17.234Z,99.90
2023-04-02T21:36:46.202Z,99.90
2023-04-02T21:39:25.833Z,99.90
2023-04-02T21:41:53.558Z,99.90
2023-04-02T21:44:22.092Z,99.90
2023-04-02T21:46:51.067Z,99.90
2023-04-02T21:49:22.526Z,99.90
2023-04-02T21:51:51.410Z,99.90
2023-04-02T21:54:18.134Z,99.90
2023-04-02T21:56:46.505Z,99.90
2023-04-02T21:59:14.773Z,99.90
2023-04-02T22:01:45.453Z,99.90
2023-04-02T22:04:18.138Z,99.90
2023-04-02T22:06:45.331Z,99.90
2023-04-02T22:09:16.610Z,99.90
2023-04-02T22:11:48.654Z,99.90
2023-04-02T22:14:15.698Z,99.90
2023-04-02T22:16:43.307Z,99.90
2023-04-02T22:19:13.381Z,99.90
2023-04-02T22:21:40.984Z,99.90
2023-04-02T22:24:12.358Z,99.90
2023-04-02T22:26:40.478Z,99.90
2023-04-02T22:29:07.572Z,99.90
2023-04-02T22:31:35.308Z,99.90
2023-04-02T22:34:02.806Z,99.90
2023-04-02T22:36:30.357Z,99.90
2023-04-02T22:38:58.142Z,99.90
2023-04-02T22:41:27.608Z,99.90
2023-04-02T22:43:56.125Z,99.90
2023-04-02T22:46:24.045Z,99.90
2023-04-02T22:48:50.956Z,99.90
2023-04-02T22:51:19.909Z,99.90
2023-04-02T22:53:47.903Z,99.90
2023-04-02T22:56:17.860Z,99.90
2023-04-02T22:58:44.773Z,99.90
2023-04-02T23:01:21.967Z,99.90
2023-04-02T23:03:48.986Z,99.90
2023-04-02T23:06:17.685Z,99.90
2023-04-02T23:08:45.581Z,99.90
2023-04-02T23:11:18.205Z,99.90
2023-04-02T23:13:47.195Z,99.90
2023-04-02T23:16:14.789Z,99.90
2023-04-02T23:18:43.265Z,99.90
2023-04-02T23:21:10.400Z,99.90
2023-04-02T23:23:38.367Z,99.90
2023-04-02T23:26:06.132Z,99.90
2023-04-02T23:28:33.697Z,99.90
2023-04-02T23:31:02.994Z,99.90
2023-04-02T23:33:29.711Z,99.90
2023-04-02T23:35:56.792Z,99.90
2023-04-02T23:38:23.983Z,99.90
2023-04-02T23:40:50.767Z,99.90
2023-04-02T23:43:17.420Z,99.90
2023-04-02T23:45:50.447Z,99.90
2023-04-02T23:48:17.406Z,99.90
2023-04-02T23:50:45.486Z,99.90
2023-04-02T23:53:13.343Z,99.90
2023-04-02T23:55:40.456Z,99.90
2023-04-02T23:58:07.306Z,99.90
